createdAt,value
2018-04-01T00:02:32.547Z,2.93
2018-04-01T00:05:05.032Z,3.07
2018-04-01T00:07:40.450Z,3.60
2018-04-01T00:10:13.864Z,2.80
2018-04-01T00:12:49.097Z,2.67
2018-04-01T00:15:24.583Z,2.80
2018-04-01T00:18:00.631Z,2.80
2018-04-01T00:20:34.790Z,3.30
2018-04-01T00:23:10.353Z,2.33
2018-04-01T00:25:45.886Z,2.50
2018-04-01T00:28:13.220Z,2.57
2018-04-01T00:30:49.640Z,2.40
2018-04-01T00:33:25.735Z,2.90
2018-04-01T00:36:00.950Z,2.30
2018-04-01T00:38:30.963Z,2.80
2018-04-01T00:41:06.441Z,2.80
2018-04-01T00:43:39.426Z,2.70
2018-04-01T00:46:16.096Z,2.87
2018-04-01T00:48:43.367Z,2.60
2018-04-01T00:51:10.003Z,2.80
2018-04-01T00:53:38.588Z,2.20
2018-04-01T00:56:13.802Z,2.50
2018-04-01T00:58:41.088Z,2.93
2018-04-01T01:01:16.619Z,3.00
2018-04-01T01:03:43.867Z,3.53
2018-04-01T01:06:10.476Z,2.90
2018-04-01T01:08:40.111Z,3.30
2018-04-01T01:11:15.632Z,2.53
2018-04-01T01:13:49.748Z,2.57
2018-04-01T01:16:25.784Z,2.60
2018-04-01T01:18:53.828Z,2.63
2018-04-01T01:21:21.111Z,2.40
2018-04-01T01:23:47.731Z,2.60
2018-04-01T01:26:14.334Z,2.20
2018-04-01T01:28:40.855Z,2.10
2018-04-01T01:31:07.429Z,2.20
2018-04-01T01:33:34.016Z,2.13
2018-04-01T01:36:00.532Z,2.70
2018-04-01T01:38:27.799Z,2.30
2018-04-01T01:40:54.393Z,2.13
2018-04-01T01:43:20.894Z,2.33
2018-04-01T01:45:47.407Z,2.33
2018-04-01T01:48:13.992Z,2.10
2018-04-01T01:50:40.524Z,2.20
2018-04-01T01:53:07.191Z,2.30
2018-04-01T01:55:33.826Z,2.20
2018-04-01T01:58:00.531Z,1.93
2018-04-01T02:00:27.108Z,2.00
2018-04-01T02:02:53.619Z,2.27
2018-04-01T02:05:20.224Z,2.10
2018-04-01T02:07:46.745Z,2.03
2018-04-01T02:10:13.391Z,2.10
2018-04-01T02:12:40.041Z,1.80
2018-04-01T02:15:06.561Z,1.90
2018-04-01T02:17:33.207Z,2.03
2018-04-01T02:19:59.780Z,2.47
2018-04-01T02:22:26.406Z,2.30
2018-04-01T02:24:52.920Z,2.00
2018-04-01T02:27:19.451Z,2.37
2018-04-01T02:29:46.096Z,2.50
2018-04-01T02:32:12.710Z,2.03
2018-04-01T02:34:39.985Z,1.90
2018-04-01T02:37:06.516Z,2.23
2018-04-01T02:39:33.090Z,1.83
2018-04-01T02:41:59.602Z,2.50
2018-04-01T02:44:26.183Z,1.70
2018-04-01T02:46:52.713Z,2.10
2018-04-01T02:49:19.312Z,2.60
2018-04-01T02:51:45.836Z,2.50
2018-04-01T02:54:13.090Z,2.30
2018-04-01T02:56:39.728Z,2.08
2018-04-01T02:59:06.300Z,2.20
2018-04-01T03:01:32.877Z,2.67
2018-04-01T03:04:00.192Z,2.80
2018-04-01T03:06:26.703Z,2.80
2018-04-01T03:08:53.325Z,2.80
2018-04-01T03:11:19.836Z,2.70
2018-04-01T03:13:46.408Z,3.25
2018-04-01T03:16:12.924Z,2.67
2018-04-01T03:18:40.255Z,3.72
2018-04-01T03:21:06.772Z,3.25
2018-04-01T03:23:33.342Z,3.67
2018-04-01T03:25:59.877Z,3.67
2018-04-01T03:28:26.453Z,3.67
2018-04-01T03:30:52.981Z,3.92
2018-04-01T03:33:19.571Z,3.83
2018-04-01T03:35:46.083Z,4.35
2018-04-01T03:38:12.658Z,4.17
2018-04-01T03:40:39.232Z,4.15
2018-04-01T03:43:05.826Z,4.40
2018-04-01T03:45:32.340Z,3.72
2018-04-01T03:47:58.939Z,4.00
2018-04-01T03:50:26.186Z,4.03
2018-04-01T03:52:53.503Z,3.35
2018-04-01T03:55:20.097Z,3.12
2018-04-01T03:57:46.644Z,3.80
2018-04-01T04:00:13.220Z,3.70
2018-04-01T04:02:39.800Z,3.70
2018-04-01T04:05:06.454Z,3.60
2018-04-01T04:07:33.031Z,3.30
2018-04-01T04:09:59.614Z,3.42
2018-04-01T04:12:26.136Z,3.15
2018-04-01T04:14:53.460Z,3.83
2018-04-01T04:17:20.009Z,3.85
2018-04-01T04:19:46.584Z,3.95
2018-04-01T04:22:13.102Z,3.87
2018-04-01T04:24:40.452Z,4.12
2018-04-01T04:27:17.072Z,3.92
2018-04-01T04:29:44.786Z,4.07
2018-04-01T04:32:11.371Z,4.50
2018-04-01T04:34:37.885Z,4.15
2018-04-01T04:37:04.471Z,3.97
2018-04-01T04:39:31.048Z,4.10
2018-04-01T04:41:57.687Z,4.30
2018-04-01T04:44:24.955Z,4.25
2018-04-01T04:46:51.563Z,4.07
2018-04-01T04:49:37.931Z,5.40
2018-04-01T04:52:06.580Z,4.97
2018-04-01T04:54:33.124Z,5.20
2018-04-01T04:56:59.759Z,4.50
2018-04-01T04:59:26.273Z,4.62
2018-04-01T05:01:52.860Z,4.80
2018-04-01T05:04:19.451Z,4.68
2018-04-01T05:06:46.776Z,4.95
2018-04-01T05:09:13.297Z,4.75
2018-04-01T05:11:39.874Z,5.68
2018-04-01T05:14:06.396Z,4.40
2018-04-01T05:16:32.977Z,5.03
2018-04-01T05:18:59.568Z,4.25
2018-04-01T05:21:26.221Z,5.07
2018-04-01T05:23:52.858Z,5.18
2018-04-01T05:26:19.426Z,4.32
2018-04-01T05:28:45.957Z,5.07
2018-04-01T05:31:12.576Z,5.93
2018-04-01T05:33:39.099Z,4.50
2018-04-01T05:36:05.613Z,5.35
2018-04-01T05:38:32.227Z,5.35
2018-04-01T05:40:58.764Z,4.75
2018-04-01T05:43:25.428Z,4.80
2018-04-01T05:45:52.003Z,5.00
2018-04-01T05:48:18.628Z,4.53
2018-04-01T05:50:45.207Z,5.00
2018-04-01T05:53:11.772Z,5.87
2018-04-01T05:55:38.362Z,5.17
2018-04-01T05:58:05.687Z,6.93
2018-04-01T06:00:32.516Z,6.80
2018-04-01T06:02:59.054Z,7.57
2018-04-01T06:05:25.650Z,6.80
2018-04-01T06:07:52.173Z,7.73
2018-04-01T06:10:19.498Z,6.83
2018-04-01T06:12:46.028Z,6.93
2018-04-01T06:15:12.536Z,7.70
2018-04-01T06:17:39.175Z,8.30
2018-04-01T06:20:05.695Z,8.43
2018-04-01T06:22:32.302Z,8.70
2018-04-01T06:24:58.823Z,9.30
2018-04-01T06:27:25.467Z,9.97
2018-04-01T06:29:52.003Z,10.57
2018-04-01T06:32:18.595Z,9.90
2018-04-01T06:34:52.195Z,10.80
2018-04-01T06:37:18.966Z,11.40
2018-04-01T06:39:46.821Z,11.10
2018-04-01T06:42:13.404Z,10.40
2018-04-01T06:44:40.579Z,11.23
2018-04-01T06:47:11.250Z,11.67
2018-04-01T06:49:38.375Z,10.60
2018-04-01T06:52:04.904Z,10.03
2018-04-01T06:54:31.499Z,11.70
2018-04-01T06:57:00.838Z,11.67
2018-04-01T06:59:30.724Z,14.97
2018-04-01T07:02:00.962Z,16.37
2018-04-01T07:04:27.583Z,17.43
2018-04-01T07:06:56.143Z,13.90
2018-04-01T07:09:22.758Z,12.37
2018-04-01T07:11:58.510Z,10.80
2018-04-01T07:14:25.404Z,10.10
2018-04-01T07:16:52.057Z,11.97
2018-04-01T07:19:21.596Z,10.10
2018-04-01T07:21:56.660Z,10.20
2018-04-01T07:24:26.023Z,8.57
2018-04-01T07:26:53.665Z,10.70
2018-04-01T07:29:22.947Z,9.23
2018-04-01T07:31:49.467Z,8.60
2018-04-01T07:34:16.071Z,8.00
2018-04-01T07:36:44.482Z,7.23
2018-04-01T07:39:11.056Z,6.77
2018-04-01T07:41:38.184Z,7.70
2018-04-01T07:44:07.783Z,8.00
2018-04-01T07:46:34.596Z,8.13
2018-04-01T07:49:01.123Z,9.23
2018-04-01T07:51:27.768Z,8.60
2018-04-01T07:54:03.762Z,9.00
2018-04-01T07:56:41.739Z,10.13
2018-04-01T07:59:09.290Z,9.70
2018-04-01T08:01:46.681Z,9.33
2018-04-01T08:04:14.550Z,10.80
2018-04-01T08:06:41.183Z,12.20
2018-04-01T08:09:12.814Z,11.83
2018-04-01T08:11:42.259Z,10.80
2018-04-01T08:14:09.005Z,12.67
2018-04-01T08:16:35.527Z,12.67
2018-04-01T08:19:03.108Z,12.87
2018-04-01T08:21:29.772Z,13.10
2018-04-01T08:23:58.339Z,13.10
2018-04-01T08:26:32.315Z,14.00
2018-04-01T08:29:10.013Z,13.60
2018-04-01T08:31:44.035Z,12.93
2018-04-01T08:34:15.121Z,13.13
2018-04-01T08:36:55.019Z,13.50
2018-04-01T08:39:31.089Z,15.20
2018-04-01T08:42:00.338Z,15.68
2018-04-01T08:44:26.980Z,14.53
2018-04-01T08:46:53.488Z,13.50
2018-04-01T08:49:20.073Z,14.60
2018-04-01T08:51:47.360Z,14.40
2018-04-01T08:54:13.955Z,13.70
2018-04-01T08:56:40.482Z,13.43
2018-04-01T08:59:07.047Z,12.23
2018-04-01T09:01:34.303Z,13.07
2018-04-01T09:04:01.622Z,12.20
2018-04-01T09:06:28.140Z,10.70
2018-04-01T09:08:54.739Z,10.67
2018-04-01T09:11:22.037Z,12.00
2018-04-01T09:13:48.588Z,12.13
2018-04-01T09:16:15.271Z,11.43
2018-04-01T09:18:41.807Z,11.60
2018-04-01T09:21:09.068Z,12.93
2018-04-01T09:23:35.640Z,12.30
2018-04-01T09:26:02.164Z,11.77
2018-04-01T09:28:28.762Z,11.20
2018-04-01T09:30:56.050Z,10.23
2018-04-01T09:33:22.569Z,10.97
2018-04-01T09:35:49.154Z,10.13
2018-04-01T09:38:15.662Z,11.90
2018-04-01T09:40:42.232Z,9.90
2018-04-01T09:43:08.762Z,9.87
2018-04-01T09:45:35.361Z,8.93
2018-04-01T09:48:01.968Z,9.80
2018-04-01T09:50:29.228Z,8.47
2018-04-01T09:52:55.744Z,8.13
2018-04-01T09:55:22.305Z,7.10
2018-04-01T09:57:49.625Z,8.60
2018-04-01T10:00:22.106Z,7.00
2018-04-01T10:02:49.053Z,7.23
2018-04-01T10:05:16.099Z,7.73
2018-04-01T10:07:43.040Z,7.20
2018-04-01T10:10:09.989Z,7.90
2018-04-01T10:12:36.920Z,7.60
2018-04-01T10:15:03.857Z,7.23
2018-04-01T10:17:30.795Z,6.90
2018-04-01T10:19:57.664Z,7.70
2018-04-01T10:22:24.598Z,8.07
2018-04-01T10:24:51.619Z,7.00
2018-04-01T10:27:18.573Z,8.10
2018-04-01T10:29:45.484Z,7.60
2018-04-01T10:32:12.382Z,7.53
2018-04-01T10:34:39.340Z,8.80
2018-04-01T10:37:06.323Z,7.93
2018-04-01T10:39:33.268Z,8.03
2018-04-01T10:42:00.215Z,7.40
2018-04-01T10:44:27.193Z,7.50
2018-04-01T10:46:54.149Z,8.67
2018-04-01T10:49:21.030Z,8.23
2018-04-01T10:51:47.964Z,7.60
2018-04-01T10:54:14.623Z,6.70
2018-04-01T10:56:41.139Z,4.93
2018-04-01T10:59:07.794Z,6.00
2018-04-01T11:01:34.328Z,5.27
2018-04-01T11:04:00.907Z,5.60
2018-04-01T11:06:28.252Z,5.70
2018-04-01T11:08:55.508Z,5.83
2018-04-01T11:11:22.833Z,7.17
2018-04-01T11:13:49.344Z,6.70
2018-04-01T11:16:15.989Z,6.40
2018-04-01T11:18:42.529Z,7.03
2018-04-01T11:21:09.100Z,5.07
2018-04-01T11:23:35.805Z,7.10
2018-04-01T11:26:02.405Z,5.70
2018-04-01T11:28:28.952Z,5.67
2018-04-01T11:30:55.537Z,6.27
2018-04-01T11:33:22.044Z,5.40
2018-04-01T11:35:48.636Z,5.13
2018-04-01T11:38:15.141Z,5.13
2018-04-01T11:40:41.729Z,5.43
2018-04-01T11:43:08.261Z,6.70
2018-04-01T11:45:34.841Z,6.70
2018-04-01T11:48:01.416Z,7.13
2018-04-01T11:50:28.060Z,5.80
2018-04-01T11:52:54.648Z,5.90
2018-04-01T11:55:21.155Z,6.83
2018-04-01T11:57:47.731Z,6.10
2018-04-01T12:00:14.279Z,6.50
2018-04-01T12:02:40.963Z,5.80
2018-04-01T12:05:07.574Z,6.27
2018-04-01T12:07:34.161Z,7.37
2018-04-01T12:10:00.744Z,6.03
2018-04-01T12:12:27.257Z,5.70
2018-04-01T12:14:53.846Z,6.20
2018-04-01T12:17:21.165Z,6.57
2018-04-01T12:19:47.686Z,5.90
2018-04-01T12:22:14.277Z,5.40
2018-04-01T12:24:40.811Z,5.30
2018-04-01T12:27:07.396Z,5.40
2018-04-01T12:29:33.907Z,5.37
2018-04-01T12:32:00.527Z,5.27
2018-04-01T12:34:27.064Z,5.30
2018-04-01T12:36:53.708Z,5.80
2018-04-01T12:39:20.353Z,5.43
2018-04-01T12:41:47.612Z,6.47
2018-04-01T12:44:14.213Z,5.80
2018-04-01T12:46:40.741Z,6.67
2018-04-01T12:49:07.372Z,7.60
2018-04-01T12:51:33.899Z,5.20
2018-04-01T12:54:00.473Z,5.13
2018-04-01T12:56:27.783Z,4.10
2018-04-01T12:58:54.356Z,6.00
2018-04-01T13:01:21.052Z,5.30
2018-04-01T13:03:47.579Z,3.63
2018-04-01T13:06:14.174Z,3.30
2018-04-01T13:08:40.753Z,3.27
2018-04-01T13:11:07.266Z,3.30
2018-04-01T13:13:33.845Z,2.93
2018-04-01T13:16:00.432Z,3.10
2018-04-01T13:18:26.999Z,3.03
2018-04-01T13:20:53.579Z,2.90
2018-04-01T13:23:20.165Z,2.80
2018-04-01T13:25:46.680Z,3.00
2018-04-01T13:28:14.115Z,2.93
2018-04-01T13:30:40.624Z,3.53
2018-04-01T13:33:07.153Z,4.30
2018-04-01T13:35:33.768Z,4.30
2018-04-01T13:38:00.303Z,5.20
2018-04-01T13:40:26.893Z,5.20
2018-04-01T13:42:53.419Z,5.60
2018-04-01T13:45:20.739Z,5.00
2018-04-01T13:47:47.320Z,4.40
2018-04-01T13:50:14.021Z,4.30
2018-04-01T13:52:40.547Z,5.10
2018-04-01T13:55:07.139Z,5.33
2018-04-01T13:57:33.805Z,5.43
2018-04-01T14:00:00.333Z,5.10
2018-04-01T14:02:27.053Z,4.70
2018-04-01T14:04:53.580Z,5.00
2018-04-01T14:07:20.143Z,4.13
2018-04-01T14:09:46.667Z,4.53
2018-04-01T14:12:13.268Z,3.93
2018-04-01T14:14:39.852Z,3.67
2018-04-01T14:17:06.394Z,3.60
2018-04-01T14:19:32.991Z,4.53
2018-04-01T14:21:59.606Z,5.10
2018-04-01T14:24:26.868Z,5.30
2018-04-01T14:26:53.459Z,4.80
2018-04-01T14:29:20.070Z,3.80
2018-04-01T14:31:46.588Z,4.60
2018-04-01T14:34:13.121Z,4.70
2018-04-01T14:36:39.722Z,4.23
2018-04-01T14:39:06.331Z,4.03
2018-04-01T14:41:32.955Z,4.07
2018-04-01T14:43:59.521Z,4.03
2018-04-01T14:46:26.123Z,4.60
2018-04-01T14:48:52.634Z,4.33
2018-04-01T14:51:19.219Z,4.20
2018-04-01T14:53:45.795Z,4.20
2018-04-01T14:56:12.425Z,4.33
2018-04-01T14:58:39.010Z,4.20
2018-04-01T15:01:05.625Z,5.10
2018-04-01T15:03:32.151Z,9.60
2018-04-01T15:05:59.422Z,7.07
2018-04-01T15:08:26.047Z,8.97
2018-04-01T15:10:52.634Z,8.37
2018-04-01T15:13:19.219Z,8.57
2018-04-01T15:15:45.736Z,9.43
2018-04-01T15:18:12.312Z,9.13
2018-04-01T15:20:38.897Z,5.27
2018-04-01T15:23:05.540Z,6.10
2018-04-01T15:25:32.064Z,5.57
2018-04-01T15:27:58.664Z,8.23
2018-04-01T15:30:25.185Z,7.43
2018-04-01T15:32:51.780Z,6.70
2018-04-01T15:35:18.303Z,6.83
2018-04-01T15:37:44.987Z,7.30
2018-04-01T15:40:11.563Z,5.83
2018-04-01T15:42:38.206Z,5.80
2018-04-01T15:45:04.752Z,5.17
2018-04-01T15:47:31.381Z,4.77
2018-04-01T15:49:57.924Z,5.90
2018-04-01T15:52:24.492Z,5.60
2018-04-01T15:54:51.064Z,5.40
2018-04-01T15:57:17.669Z,9.00
2018-04-01T15:59:44.184Z,9.00
2018-04-01T16:02:10.760Z,8.30
2018-04-01T16:04:37.279Z,9.07
2018-04-01T16:07:03.889Z,10.33
2018-04-01T16:09:30.411Z,9.90
2018-04-01T16:11:56.921Z,12.00
2018-04-01T16:14:23.504Z,10.63
2018-04-01T16:16:50.944Z,8.93
2018-04-01T16:19:17.491Z,9.43
2018-04-01T16:21:44.099Z,8.03
2018-04-01T16:24:10.694Z,8.80
2018-04-01T16:26:37.292Z,8.23
2018-04-01T16:29:03.883Z,8.57
2018-04-01T16:31:30.392Z,8.87
2018-04-01T16:33:56.977Z,8.23
2018-04-01T16:36:23.498Z,9.40
2018-04-01T16:38:50.102Z,8.17
2018-04-01T16:41:16.614Z,9.20
2018-04-01T16:43:45.561Z,10.33
2018-04-01T16:46:12.436Z,10.90
2018-04-01T16:48:45.217Z,10.93
2018-04-01T16:51:21.042Z,12.97
2018-04-01T16:53:53.317Z,10.60
2018-04-01T16:56:26.303Z,12.20
2018-04-01T16:59:00.219Z,11.87
2018-04-01T17:01:28.106Z,12.23
2018-04-01T17:03:56.563Z,12.50
2018-04-01T17:06:23.141Z,11.97
2018-04-01T17:08:49.662Z,12.63
2018-04-01T17:11:16.314Z,11.70
2018-04-01T17:13:42.860Z,11.10
2018-04-01T17:16:09.440Z,11.37
2018-04-01T17:18:37.849Z,11.80
2018-04-01T17:21:04.399Z,11.83
2018-04-01T17:23:30.993Z,14.17
2018-04-01T17:25:57.581Z,15.03
2018-04-01T17:28:24.234Z,12.93
2018-04-01T17:30:50.755Z,14.50
2018-04-01T17:33:17.352Z,13.83
2018-04-01T17:35:43.963Z,12.43
2018-04-01T17:38:10.585Z,13.40
2018-04-01T17:40:37.107Z,13.80
2018-04-01T17:43:03.756Z,14.50
2018-04-01T17:45:30.285Z,12.23
2018-04-01T17:47:56.812Z,12.20
2018-04-01T17:50:23.399Z,12.70
2018-04-01T17:52:49.929Z,13.33
2018-04-01T17:55:16.541Z,14.43
2018-04-01T17:57:43.126Z,13.33
2018-04-01T18:00:09.747Z,15.47
2018-04-01T18:02:36.320Z,15.67
2018-04-01T18:05:03.710Z,17.80
2018-04-01T18:07:30.224Z,13.57
2018-04-01T18:09:56.894Z,12.47
2018-04-01T18:12:23.428Z,11.80
2018-04-01T18:14:50.042Z,11.37
2018-04-01T18:17:16.853Z,11.57
2018-04-01T18:19:43.435Z,12.30
2018-04-01T18:22:10.059Z,11.20
2018-04-01T18:24:36.625Z,12.30
2018-04-01T18:27:03.256Z,11.97
2018-04-01T18:29:29.905Z,13.37
2018-04-01T18:31:56.532Z,13.60
2018-04-01T18:34:23.047Z,12.93
2018-04-01T18:36:50.375Z,16.93
2018-04-01T18:39:16.891Z,17.10
2018-04-01T18:41:43.550Z,19.10
2018-04-01T18:44:10.056Z,18.67
2018-04-01T18:46:36.640Z,17.10
2018-04-01T18:49:03.211Z,17.77
2018-04-01T18:51:31.923Z,16.13
2018-04-01T18:53:58.464Z,19.03
2018-04-01T18:56:25.087Z,17.57
2018-04-01T18:58:51.719Z,14.27
2018-04-01T19:01:18.295Z,11.90
2018-04-01T19:03:44.894Z,10.33
2018-04-01T19:06:11.480Z,14.80
2018-04-01T19:08:38.052Z,14.37
2018-04-01T19:11:04.563Z,13.03
2018-04-01T19:13:32.114Z,12.83
2018-04-01T19:15:58.982Z,11.77
2018-04-01T19:18:26.676Z,11.73
2018-04-01T19:20:53.541Z,14.30
2018-04-01T19:23:20.579Z,19.73
2018-04-01T19:25:47.568Z,17.17
2018-04-01T19:28:15.245Z,17.30
2018-04-01T19:30:42.194Z,18.40
2018-04-01T19:33:09.820Z,17.57
2018-04-01T19:35:36.767Z,15.50
2018-04-01T19:38:03.649Z,14.63
2018-04-01T19:40:31.461Z,15.90
2018-04-01T19:42:58.339Z,16.05
2018-04-01T19:45:25.256Z,14.77
2018-04-01T19:47:52.192Z,17.47
2018-04-01T19:50:19.070Z,16.00
2018-04-01T19:52:46.025Z,16.60
2018-04-01T19:55:14.382Z,16.60
2018-04-01T19:57:41.424Z,17.93
2018-04-01T20:00:08.324Z,17.87
2018-04-01T20:02:35.296Z,20.98
2018-04-01T20:05:02.247Z,19.83
2018-04-01T20:07:29.206Z,20.17
2018-04-01T20:09:56.105Z,20.90
2018-04-01T20:12:23.069Z,20.25
2018-04-01T20:14:50.018Z,22.80
2018-04-01T20:17:16.978Z,21.65
2018-04-01T20:19:43.898Z,19.37
2018-04-01T20:22:10.898Z,21.87
2018-04-01T20:24:37.827Z,23.17
2018-04-01T20:27:04.708Z,20.13
2018-04-01T20:29:31.803Z,21.33
2018-04-01T20:31:58.683Z,20.62
2018-04-01T20:34:37.652Z,22.40
2018-04-01T20:37:05.260Z,26.60
2018-04-01T20:39:32.252Z,22.55
2018-04-01T20:42:10.773Z,21.93
2018-04-01T20:44:42.309Z,21.17
2018-04-01T20:47:09.460Z,22.98
2018-04-01T20:49:47.301Z,19.92
2018-04-01T20:52:26.956Z,22.77
2018-04-01T20:54:55.971Z,22.25
2018-04-01T20:57:22.932Z,22.58
2018-04-01T20:59:49.856Z,23.20
2018-04-01T21:02:18.424Z,21.60
2018-04-01T21:04:53.481Z,23.90
2018-04-01T21:07:20.954Z,25.12
2018-04-01T21:09:47.891Z,25.27
2018-04-01T21:12:14.944Z,25.60
2018-04-01T21:14:42.048Z,31.42
2018-04-01T21:17:13.269Z,29.83
2018-04-01T21:19:48.464Z,24.67
2018-04-01T21:22:17.907Z,24.95
2018-04-01T21:24:44.824Z,23.60
2018-04-01T21:27:23.630Z,23.30
2018-04-01T21:30:02.254Z,24.37
2018-04-01T21:32:30.057Z,24.67
2018-04-01T21:34:57.703Z,25.50
2018-04-01T21:37:24.728Z,23.00
2018-04-01T21:39:51.651Z,24.05
2018-04-01T21:42:18.516Z,24.42
2018-04-01T21:44:45.443Z,23.77
2018-04-01T21:47:23.405Z,25.92
2018-04-01T21:49:51.810Z,24.58
2018-04-01T21:52:19.802Z,26.08
2018-04-01T21:54:51.859Z,26.35
2018-04-01T21:57:29.938Z,23.92
2018-04-01T21:59:57.589Z,27.52
2018-04-01T22:02:33.201Z,27.35
2018-04-01T22:05:12.740Z,26.65
2018-04-01T22:07:51.658Z,26.77
2018-04-01T22:10:32.061Z,24.58
2018-04-01T22:13:11.473Z,25.85
2018-04-01T22:15:50.270Z,28.67
2018-04-01T22:18:17.946Z,26.00
2018-04-01T22:20:54.747Z,27.15
2018-04-01T22:23:22.452Z,28.85
2018-04-01T22:25:49.392Z,27.92
2018-04-01T22:28:27.782Z,27.77
2018-04-01T22:30:55.415Z,27.52
2018-04-01T22:33:22.361Z,28.60
2018-04-01T22:35:49.255Z,28.02
2018-04-01T22:38:16.203Z,28.65
2018-04-01T22:40:43.120Z,29.12
2018-04-01T22:43:20.473Z,26.75
2018-04-01T22:45:49.803Z,27.60
2018-04-01T22:48:27.233Z,28.48
2018-04-01T22:50:54.930Z,28.33
2018-04-01T22:53:21.839Z,27.92
2018-04-01T22:55:48.877Z,30.30
2018-04-01T22:58:15.771Z,27.83
2018-04-01T23:00:42.723Z,28.17
2018-04-01T23:03:09.647Z,30.42
2018-04-01T23:05:37.351Z,27.45
2018-04-01T23:08:04.297Z,28.58
2018-04-01T23:10:31.285Z,28.15
2018-04-01T23:12:58.214Z,27.58
2018-04-01T23:15:34.086Z,29.37
2018-04-01T23:18:01.025Z,28.00
2018-04-01T23:20:28.005Z,27.70
2018-04-01T23:22:55.715Z,29.08
2018-04-01T23:25:22.671Z,28.83
2018-04-01T23:27:49.533Z,28.70
2018-04-01T23:30:16.468Z,30.58
2018-04-01T23:32:43.340Z,32.10
2018-04-01T23:35:10.277Z,29.25
2018-04-01T23:37:37.213Z,29.70
2018-04-01T23:40:04.121Z,29.75
2018-04-01T23:42:31.099Z,29.65
2018-04-01T23:44:58.036Z,28.75
2018-04-01T23:47:24.988Z,29.58
2018-04-01T23:49:51.883Z,29.97
2018-04-01T23:52:18.823Z,29.47
2018-04-01T23:54:46.513Z,30.75
2018-04-01T23:57:13.410Z,29.47
2018-04-01T23:59:40.329Z,30.27
